Time;durP1;ratioP1;P1;durP2;ratioP2;P2;SDS_P1;SDS_P2;PMS_P1;PMS_P2;Temp;Humidity;BMP_temperature;BMP_pressure;BME280_temperature;BME280_humidity;BME280_pressure;Samples;Min_cycle;Max_cycle;Signal;HPM_P1;HPM_P2
2023/09/06 00:02:31;;;;;;;7.60;3.60;;;;;;;17.30;93.13;100498.80;109634;1251;71989;-67
2023/09/06 00:05:18;;;;;;;7.90;4.00;;;;;;;17.28;93.17;100499.41;109676;1251;67989;-64
2023/09/06 00:08:06;;;;;;;8.60;3.90;;;;;;;17.26;92.90;100501.15;109596;1251;72472;-64
2023/09/06 00:10:52;;;;;;;9.90;4.00;;;;;;;17.25;92.92;100497.39;109456;1252;59327;-64
2023/09/06 00:13:38;;;;;;;7.40;3.70;;;;;;;17.24;92.83;100496.79;109261;1253;58814;-63
2023/09/06 00:16:25;;;;;;;9.40;4.00;;;;;;;17.22;92.90;100495.33;109585;1251;72240;-65
2023/09/06 00:19:11;;;;;;;7.60;3.90;;;;;;;17.20;93.07;100494.60;109660;1251;67189;-65
2023/09/06 00:21:59;;;;;;;9.20;3.50;;;;;;;17.18;92.81;100495.89;109600;1251;72175;-67
2023/09/06 00:24:46;;;;;;;9.00;3.80;;;;;;;17.16;92.90;100493.05;109451;1251;59035;-64
2023/09/06 00:27:32;;;;;;;7.20;3.40;;;;;;;17.13;92.91;100491.73;109617;1251;59141;-65
2023/09/06 00:30:19;;;;;;;7.70;3.70;;;;;;;17.12;92.81;100489.52;109521;1251;72088;-65
2023/09/06 00:33:07;;;;;;;8.90;3.80;;;;;;;17.10;92.98;100488.41;109554;1251;67710;-65
2023/09/06 00:35:54;;;;;;;8.40;3.60;;;;;;;17.10;92.77;100490.56;109632;1251;73881;-64
2023/09/06 00:38:40;;;;;;;7.40;3.30;;;;;;;17.11;92.83;100492.09;109560;1251;57938;-64
2023/09/06 00:41:27;;;;;;;8.50;3.60;;;;;;;17.12;92.55;100495.02;109508;1251;60061;-64
2023/09/06 00:44:15;;;;;;;9.30;4.10;;;;;;;17.12;92.35;100498.80;109465;1251;71005;-64
2023/09/06 00:47:02;;;;;;;8.70;3.80;;;;;;;17.12;92.37;100499.66;109583;1251;68673;-65
2023/09/06 00:49:48;;;;;;;9.80;3.50;;;;;;;17.12;92.24;100504.73;109593;1251;72689;-65
2023/09/06 00:52:35;;;;;;;9.30;4.00;;;;;;;17.10;92.32;100502.05;109482;1251;57810;-64
2023/09/06 00:55:21;;;;;;;8.70;4.00;;;;;;;17.08;92.39;100504.82;109631;1251;61283;-64
2023/09/06 00:58:08;;;;;;;8.00;4.10;;;;;;;17.05;92.31;100502.44;109613;1251;72176;-65
2023/09/06 01:00:55;;;;;;;9.60;4.00;;;;;;;17.00;92.13;100499.31;109650;1251;65929;-65
2023/09/06 01:03:42;;;;;;;8.50;3.90;;;;;;;17.01;92.04;100504.14;109566;1251;72790;-64
2023/09/06 01:06:33;;;;;;;9.50;3.90;;;;;;;16.99;92.13;100505.84;109410;1253;60584;-63
2023/09/06 01:09:19;;;;;;;10.10;3.90;;;;;;;16.96;92.13;100503.75;109566;1252;58824;-65
2023/09/06 01:12:10;;;;;;;8.60;4.00;;;;;;;16.94;92.20;100500.93;109368;1253;72190;-66
2023/09/06 01:14:57;;;;;;;7.50;3.60;;;;;;;16.92;92.34;100499.30;109422;1252;67837;-63
2023/09/06 01:17:45;;;;;;;8.50;3.30;;;;;;;16.89;92.28;100493.14;109509;1252;72540;-66
2023/09/06 01:20:42;;;;;;;9.30;3.50;;;;;;;16.86;92.54;100495.98;109460;1254;57763;-66
2023/09/06 01:23:40;;;;;;;9.60;3.50;;;;;;;16.81;92.78;100494.78;109406;1252;61155;-65
2023/09/06 01:26:27;;;;;;;8.70;4.00;;;;;;;16.77;92.83;100495.87;109304;1252;72126;-65
2023/09/06 01:29:13;;;;;;;8.20;3.90;;;;;;;16.74;93.10;100494.58;109375;1253;69178;-65
2023/09/06 01:32:00;;;;;;;8.60;3.70;;;;;;;16.71;93.44;100495.05;109341;1253;72508;-65
2023/09/06 01:34:46;;;;;;;8.30;3.70;;;;;;;16.68;93.46;100497.41;109533;1252;58325;-66
2023/09/06 01:37:35;;;;;;;8.50;3.90;;;;;;;16.67;93.43;100504.20;109482;1252;60187;-64
2023/09/06 01:40:21;;;;;;;8.30;3.80;;;;;;;16.65;93.50;100498.13;109541;1252;70788;-66
2023/09/06 01:43:08;;;;;;;8.30;3.70;;;;;;;16.63;93.60;100498.98;109438;1253;66404;-65
2023/09/06 01:45:55;;;;;;;9.60;4.30;;;;;;;16.62;93.73;100502.36;109373;1253;72350;-65
2023/09/06 01:48:42;;;;;;;9.20;4.00;;;;;;;16.60;93.71;100497.90;109494;1252;57984;-65
2023/09/06 01:51:28;;;;;;;7.90;4.10;;;;;;;16.58;93.87;100497.20;109528;1252;60391;-64
2023/09/06 01:54:15;;;;;;;8.40;3.90;;;;;;;16.56;93.91;100496.27;109539;1253;72314;-65
2023/09/06 01:57:02;;;;;;;8.40;4.00;;;;;;;16.54;93.93;100497.94;109558;1252;67594;-64
2023/09/06 01:59:50;;;;;;;8.60;4.10;;;;;;;16.52;94.13;100497.23;109277;1252;72618;-67
2023/09/06 02:02:36;;;;;;;9.50;4.30;;;;;;;16.47;94.09;100498.20;109359;1252;57647;-65
2023/09/06 02:05:23;;;;;;;7.60;4.30;;;;;;;16.42;94.34;100496.42;109547;1252;60017;-65
2023/09/06 02:08:11;;;;;;;8.00;4.10;;;;;;;16.34;94.51;100493.20;109519;1252;72977;-66
2023/09/06 02:10:57;;;;;;;9.00;4.10;;;;;;;16.33;94.79;100499.17;109437;1252;69000;-65
2023/09/06 02:13:44;;;;;;;8.10;3.70;;;;;;;16.31;94.91;100501.52;109507;1253;72491;-65
2023/09/06 02:16:31;;;;;;;7.90;3.50;;;;;;;16.29;95.10;100503.48;109530;1253;58659;-67
2023/09/06 02:19:19;;;;;;;9.30;4.40;;;;;;;16.27;95.28;100504.44;109561;1251;60243;-65
2023/09/06 02:22:06;;;;;;;8.60;4.10;;;;;;;16.25;95.41;100503.34;109624;1251;72100;-64
2023/09/06 02:24:52;;;;;;;8.60;4.40;;;;;;;16.24;95.46;100498.12;109659;1251;67732;-65
2023/09/06 02:27:40;;;;;;;9.50;4.50;;;;;;;16.23;95.59;100497.34;109530;1251;72587;-65
2023/09/06 02:30:26;;;;;;;8.30;3.70;;;;;;;16.22;95.49;100492.77;109614;1251;60684;-65
2023/09/06 02:33:14;;;;;;;8.50;4.30;;;;;;;16.20;95.78;100488.43;109659;1251;60388;-65
2023/09/06 02:36:00;;;;;;;8.70;4.30;;;;;;;16.17;96.20;100481.77;109635;1251;71663;-65
2023/09/06 02:38:47;;;;;;;8.60;3.60;;;;;;;16.20;96.54;100487.92;109351;1251;67968;-64
2023/09/06 02:41:34;;;;;;;8.80;3.80;;;;;;;16.20;96.61;100491.66;109606;1251;73716;-65
2023/09/06 02:44:20;;;;;;;9.80;4.20;;;;;;;16.21;96.65;100498.74;109591;1251;59331;-65
2023/09/06 02:47:11;;;;;;;9.30;4.00;;;;;;;16.22;96.35;100499.56;109601;1253;60125;-65
2023/09/06 02:49:59;;;;;;;8.10;3.90;;;;;;;16.21;96.40;100497.83;109573;1251;72072;-64
2023/09/06 02:52:45;;;;;;;8.00;4.00;;;;;;;16.21;96.52;100498.94;109531;1253;66640;-65
2023/09/06 02:55:35;;;;;;;8.50;3.80;;;;;;;16.20;96.64;100498.98;109538;1253;72522;-65
2023/09/06 02:58:25;;;;;;;8.90;4.20;;;;;;;16.20;96.52;100500.67;109402;1251;60303;-65
2023/09/06 03:01:19;;;;;;;7.60;4.10;;;;;;;16.19;96.51;100498.61;109549;1253;61291;-65
2023/09/06 03:04:06;;;;;;;8.40;3.90;;;;;;;16.18;96.74;100494.38;109607;1251;70685;-66
2023/09/06 03:06:54;;;;;;;7.90;3.60;;;;;;;16.18;96.95;100494.37;109629;1251;68737;-65
2023/09/06 03:09:44;;;;;;;7.30;3.40;;;;;;;16.17;96.85;100493.89;109521;1251;73740;-65
2023/09/06 03:12:31;;;;;;;8.60;4.00;;;;;;;16.16;97.01;100494.58;109496;1253;57806;-65
2023/09/06 03:15:17;;;;;;;11.30;4.10;;;;;;;16.14;96.96;100497.04;109350;1254;61334;-66
2023/09/06 03:18:05;;;;;;;9.10;4.30;;;;;;;16.12;97.09;100497.44;109275;1254;72278;-64
2023/09/06 03:20:55;;;;;;;9.50;4.20;;;;;;;16.11;97.26;100502.02;109451;1252;66944;-72
2023/09/06 03:23:46;;;;;;;9.90;3.90;;;;;;;16.10;96.93;100505.13;109295;1253;71453;-66
2023/09/06 03:26:36;;;;;;;9.60;3.80;;;;;;;16.09;96.90;100508.67;109287;1253;59521;-66
2023/09/06 03:29:24;;;;;;;8.70;4.20;;;;;;;16.07;97.13;100507.16;109518;1252;60383;-66
2023/09/06 03:32:11;;;;;;;9.20;4.60;;;;;;;16.06;97.28;100508.39;109358;1253;73096;-64
2023/09/06 03:34:58;;;;;;;8.80;4.40;;;;;;;16.05;97.10;100509.15;109375;1253;66584;-65
2023/09/06 03:37:45;;;;;;;10.70;4.10;;;;;;;16.05;97.16;100510.47;109317;1253;72540;-64
2023/09/06 03:40:37;;;;;;;8.10;3.90;;;;;;;16.01;97.04;100501.33;109363;1253;59237;-66
2023/09/06 03:43:30;;;;;;;8.20;3.90;;;;;;;16.03;97.14;100505.96;109569;1252;60151;-64
2023/09/06 03:46:19;;;;;;;8.70;4.20;;;;;;;16.03;97.18;100505.67;109569;1252;70931;-66
2023/09/06 03:49:05;;;;;;;8.50;4.00;;;;;;;16.01;96.87;100507.98;109553;1252;67890;-66
2023/09/06 03:51:52;;;;;;;10.10;4.00;;;;;;;16.01;96.89;100505.80;109332;1253;73558;-65
2023/09/06 03:54:38;;;;;;;8.20;4.10;;;;;;;15.99;96.66;100506.67;109355;1253;58587;-65
2023/09/06 03:57:25;;;;;;;10.00;4.00;;;;;;;15.97;96.73;100510.23;109534;1253;60385;-65
2023/09/06 04:00:24;;;;;;;9.10;4.40;;;;;;;15.95;96.92;100510.96;109353;1252;70824;-65
2023/09/06 04:03:18;;;;;;;8.10;4.00;;;;;;;15.93;97.04;100508.45;109320;1253;69228;-64
2023/09/06 04:06:06;;;;;;;9.20;4.10;;;;;;;15.92;97.17;100507.93;109349;1253;72718;-65
2023/09/06 04:08:53;;;;;;;9.60;4.30;;;;;;;15.90;97.10;100509.31;109495;1253;59591;-66
2023/09/06 04:11:40;;;;;;;10.50;4.90;;;;;;;15.88;97.32;100510.23;109502;1253;58836;-66
2023/09/06 04:14:27;;;;;;;8.10;4.20;;;;;;;15.87;97.19;100508.05;109463;1257;69822;-66
2023/09/06 04:17:13;;;;;;;8.50;4.40;;;;;;;15.86;97.33;100506.80;109576;1253;68360;-66
2023/09/06 04:20:00;;;;;;;9.80;4.10;;;;;;;15.86;97.23;100506.08;109177;1254;72750;-67
2023/09/06 04:22:47;;;;;;;9.10;4.00;;;;;;;15.86;97.22;100506.81;109328;1254;59476;-66
2023/09/06 04:25:44;;;;;;;9.90;4.20;;;;;;;15.87;97.25;100510.67;109219;1257;57843;-68
2023/09/06 04:28:34;;;;;;;9.20;4.00;;;;;;;15.89;97.12;100516.75;109159;1257;71132;-66
2023/09/06 04:31:22;;;;;;;10.50;4.20;;;;;;;15.89;96.93;100514.04;109075;1254;68875;-65
2023/09/06 04:34:11;;;;;;;8.30;4.10;;;;;;;15.90;96.86;100512.37;109197;1255;72228;-66
2023/09/06 04:36:58;;;;;;;8.40;4.20;;;;;;;15.89;96.91;100507.27;108989;1255;404601;-66
2023/09/06 04:39:45;;;;;;;11.20;4.20;;;;;;;15.92;96.95;100514.11;109240;1256;59036;-65
2023/09/06 04:42:32;;;;;;;7.80;4.20;;;;;;;15.96;96.96;100514.62;109271;1254;73031;-65
2023/09/06 04:45:19;;;;;;;8.50;4.30;;;;;;;15.99;96.66;100518.15;109188;1254;67805;-65
2023/09/06 04:48:16;;;;;;;8.20;4.20;;;;;;;16.02;96.68;100517.70;109169;1255;72454;-64
2023/09/06 04:51:05;;;;;;;10.90;4.60;;;;;;;16.04;96.50;100519.47;109157;1254;58997;-65
2023/09/06 04:53:51;;;;;;;8.40;4.40;;;;;;;16.06;96.37;100519.98;109348;1256;59060;-64
2023/09/06 04:56:44;;;;;;;9.50;4.20;;;;;;;16.08;96.35;100528.02;109327;1254;73129;-64
2023/09/06 04:59:33;;;;;;;9.00;4.10;;;;;;;16.11;96.20;100536.75;109409;1252;68856;-65
2023/09/06 05:02:20;;;;;;;8.80;4.40;;;;;;;16.13;96.12;100534.93;109281;1253;72543;-66
2023/09/06 05:05:07;;;;;;;8.70;3.90;;;;;;;16.16;96.01;100542.70;109477;1253;58040;-64
2023/09/06 05:07:53;;;;;;;7.30;3.80;;;;;;;16.20;95.85;100548.29;109250;1252;60249;-66
2023/09/06 05:10:41;;;;;;;9.10;4.10;;;;;;;16.25;95.91;100549.94;109442;1253;72159;-66
2023/09/06 05:13:27;;;;;;;9.00;4.20;;;;;;;16.30;95.70;100556.45;109424;1253;67753;-66
2023/09/06 05:16:17;;;;;;;9.10;4.20;;;;;;;16.35;95.53;100560.44;109313;1253;71189;-66
2023/09/06 05:19:03;;;;;;;8.70;4.00;;;;;;;16.39;95.34;100564.04;109508;1252;57296;-67
2023/09/06 05:21:56;;;;;;;8.80;4.00;;;;;;;16.44;95.30;100567.64;109272;1253;60166;-66
2023/09/06 05:24:43;;;;;;;9.90;4.10;;;;;;;16.50;95.00;100576.39;109353;1253;72092;-67
2023/09/06 05:27:29;;;;;;;8.30;3.80;;;;;;;16.55;94.79;100576.11;109338;1252;67716;-63
2023/09/06 05:30:16;;;;;;;8.30;3.60;;;;;;;16.61;94.89;100580.73;109480;1253;72587;-65
2023/09/06 05:33:04;;;;;;;9.40;3.90;;;;;;;16.68;94.59;100583.43;109468;1252;59419;-65
2023/09/06 05:35:54;;;;;;;8.00;3.60;;;;;;;16.75;94.48;100586.58;109163;1256;58772;-67
2023/09/06 05:38:40;;;;;;;9.60;3.80;;;;;;;16.84;94.33;100586.10;109050;1256;73065;-65
2023/09/06 05:41:28;;;;;;;8.00;3.90;;;;;;;16.92;94.06;100587.84;109042;1256;68705;-67
2023/09/06 05:44:15;;;;;;;10.20;4.00;;;;;;;16.97;93.79;100586.09;109061;1256;72553;-67
2023/09/06 05:47:01;;;;;;;8.80;3.80;;;;;;;17.10;93.61;100594.00;109052;1255;57960;-68
2023/09/06 05:49:52;;;;;;;7.10;3.50;;;;;;;17.20;93.24;100594.48;109113;1256;58882;-68
2023/09/06 05:52:38;;;;;;;8.90;3.70;;;;;;;17.31;93.06;100599.15;109070;1256;72207;-67
2023/09/06 05:55:24;;;;;;;8.30;3.60;;;;;;;17.43;92.79;100603.41;109010;1256;69407;-66
2023/09/06 05:58:12;;;;;;;7.30;3.30;;;;;;;17.55;92.53;100605.43;109135;1256;72753;-67
2023/09/06 06:00:59;;;;;;;9.20;3.40;;;;;;;17.66;92.10;100606.45;109202;1256;57185;-66
2023/09/06 06:03:45;;;;;;;7.60;3.10;;;;;;;17.77;91.78;100606.84;109064;1256;58948;-65
2023/09/06 06:06:31;;;;;;;8.00;3.80;;;;;;;17.87;91.31;100604.39;109141;1253;72252;-68
2023/09/06 06:09:21;;;;;;;11.00;3.60;;;;;;;18.00;90.95;100605.27;109284;1253;66441;-67
2023/09/06 06:12:10;;;;;;;7.90;3.70;;;;;;;18.15;90.72;100606.27;109485;1252;72871;-67
2023/09/06 06:15:00;;;;;;;8.70;3.50;;;;;;;18.33;90.17;100606.09;109205;1253;59407;-67
2023/09/06 06:17:46;;;;;;;7.80;3.60;;;;;;;18.55;89.20;100608.89;109277;1253;59149;-68
2023/09/06 06:20:32;;;;;;;9.20;3.40;;;;;;;18.84;88.10;100615.76;109349;1253;73257;-67
2023/09/06 06:23:30;;;;;;;7.10;3.00;;;;;;;19.59;85.86;100620.92;109533;1253;66360;-67
2023/09/06 06:26:19;;;;;;;6.80;3.20;;;;;;;21.22;80.36;100616.63;109471;1252;71663;-65
2023/09/06 06:29:05;;;;;;;7.60;2.90;;;;;;;23.18;74.29;100618.45;109347;1253;57921;-68
2023/09/06 06:31:52;;;;;;;7.70;2.70;;;;;;;24.99;66.04;100622.97;109220;1253;60182;-67
2023/09/06 06:34:39;;;;;;;6.80;2.70;;;;;;;26.60;60.04;100626.13;109490;1252;72159;-67
2023/09/06 06:37:27;;;;;;;9.10;2.80;;;;;;;28.00;54.42;100627.54;109506;1253;67636;-70
2023/09/06 06:40:13;;;;;;;7.10;2.40;;;;;;;29.27;51.11;100630.56;109512;1253;72266;-66
2023/09/06 06:42:59;;;;;;;7.40;2.50;;;;;;;30.41;46.89;100632.05;109487;1253;57690;-69
2023/09/06 06:45:54;;;;;;;6.70;2.30;;;;;;;31.33;44.17;100629.73;109311;1253;58843;-64
2023/09/06 06:48:40;;;;;;;6.90;2.30;;;;;;;32.29;42.26;100635.16;109297;1253;73683;-66
2023/09/06 06:51:35;;;;;;;7.30;2.10;;;;;;;33.13;38.92;100633.05;109574;1252;67917;-66
2023/09/06 06:54:23;;;;;;;6.30;2.30;;;;;;;33.80;36.96;100626.27;109308;1253;72881;-67
2023/09/06 06:57:09;;;;;;;8.20;2.10;;;;;;;34.35;35.40;100627.39;109268;1254;58313;-66
2023/09/06 06:59:56;;;;;;;7.50;2.10;;;;;;;34.86;34.11;100626.04;109291;1252;60226;-65
2023/09/06 07:02:42;;;;;;;6.10;1.90;;;;;;;35.37;33.36;100631.14;109173;1252;70207;-64
2023/09/06 07:05:30;;;;;;;6.10;1.90;;;;;;;35.97;31.86;100630.77;109512;1252;67933;-67
2023/09/06 07:08:16;;;;;;;7.30;1.80;;;;;;;36.54;30.61;100634.99;109444;1253;71899;-68
2023/09/06 07:11:07;;;;;;;5.70;1.50;;;;;;;36.99;28.85;100637.68;109329;1253;57269;-67
2023/09/06 07:13:53;;;;;;;5.80;1.80;;;;;;;37.38;27.66;100629.44;109473;1253;60410;-66
2023/09/06 07:16:40;;;;;;;5.20;1.60;;;;;;;37.62;27.33;100628.30;109487;1252;72222;-66
2023/09/06 07:19:27;;;;;;;6.50;1.60;;;;;;;37.89;26.82;100625.70;109481;1253;66667;-67
2023/09/06 07:22:13;;;;;;;6.50;1.60;;;;;;;38.03;26.29;100631.24;109269;1253;73075;-64
2023/09/06 07:24:59;;;;;;;7.80;1.80;;;;;;;38.22;25.14;100631.05;109463;1253;57911;-70
2023/09/06 07:27:45;;;;;;;6.50;1.40;;;;;;;38.35;24.64;100626.78;109143;1253;61167;-67
2023/09/06 07:30:32;;;;;;;6.60;1.50;;;;;;;38.50;24.61;100627.78;109455;1253;72998;-64
2023/09/06 07:33:19;;;;;;;5.10;1.40;;;;;;;38.63;24.45;100626.48;109480;1253;68295;-67
2023/09/06 07:36:06;;;;;;;5.90;1.50;;;;;;;38.81;23.94;100628.77;109230;1253;72758;-65
2023/09/06 07:38:54;;;;;;;5.40;1.40;;;;;;;38.95;23.43;100630.70;109421;1253;57758;-69
2023/09/06 07:41:41;;;;;;;6.20;1.30;;;;;;;39.17;23.20;100630.86;109496;1252;60360;-71
2023/09/06 07:44:32;;;;;;;5.20;1.40;;;;;;;39.27;23.08;100634.50;109294;1253;72384;-66
2023/09/06 07:47:18;;;;;;;5.00;1.30;;;;;;;39.31;22.85;100634.89;109519;1253;66404;-66
2023/09/06 07:50:06;;;;;;;4.70;1.10;;;;;;;39.48;22.92;100640.61;109451;1253;71732;-66
2023/09/06 07:52:52;;;;;;;6.30;1.60;;;;;;;39.53;22.85;100638.59;109495;1253;59390;-65
2023/09/06 07:55:38;;;;;;;5.80;1.40;;;;;;;39.49;22.93;100640.39;109513;1253;58882;-67
2023/09/06 07:58:24;;;;;;;6.60;1.60;;;;;;;39.42;22.80;100639.53;109527;1253;71228;-70
2023/09/06 08:01:11;;;;;;;5.80;1.60;;;;;;;39.43;23.05;100649.26;109461;1253;68755;-65
2023/09/06 08:04:05;;;;;;;6.80;1.60;;;;;;;39.52;22.84;100649.69;109365;1253;72739;-67
2023/09/06 08:06:52;;;;;;;5.60;1.40;;;;;;;39.58;22.48;100648.52;109449;1255;57019;-67
2023/09/06 08:09:38;;;;;;;5.50;1.60;;;;;;;39.69;22.43;100649.74;109522;1253;60310;-64
2023/09/06 08:12:25;;;;;;;6.60;1.50;;;;;;;39.94;22.20;100647.70;109467;1252;72196;-65
2023/09/06 08:15:12;;;;;;;5.90;1.40;;;;;;;40.08;21.94;100647.34;109532;1253;66552;-67
2023/09/06 08:17:59;;;;;;;5.20;1.30;;;;;;;40.15;21.93;100650.27;109507;1253;73490;-66
2023/09/06 08:20:45;;;;;;;5.60;1.50;;;;;;;40.32;21.84;100650.70;109499;1253;58009;-67
2023/09/06 08:23:31;;;;;;;5.80;1.20;;;;;;;40.19;21.61;100652.54;109481;1253;58936;-65
2023/09/06 08:26:17;;;;;;;5.90;1.50;;;;;;;40.13;21.98;100657.23;109440;1256;70849;-71
2023/09/06 08:29:05;;;;;;;6.80;1.40;;;;;;;40.36;21.75;100657.60;109501;1252;67890;-68
2023/09/06 08:31:51;;;;;;;5.50;1.40;;;;;;;40.68;21.32;100657.58;109475;1252;72893;-65
2023/09/06 08:34:37;;;;;;;5.40;1.30;;;;;;;40.80;21.31;100658.76;109503;1254;57857;-66
2023/09/06 08:37:24;;;;;;;5.00;1.40;;;;;;;41.10;20.96;100664.43;109335;1253;60211;-68
2023/09/06 08:40:11;;;;;;;6.40;1.50;;;;;;;41.36;20.43;100665.47;109497;1253;71323;-67
2023/09/06 08:43:03;;;;;;;6.80;1.50;;;;;;;41.40;20.09;100666.17;109341;1253;66624;-66
2023/09/06 08:45:51;;;;;;;6.10;1.40;;;;;;;41.28;20.49;100666.58;109444;1253;72468;-64
2023/09/06 08:48:38;;;;;;;5.60;1.50;;;;;;;41.29;20.43;100663.25;109227;1252;57820;-64
2023/09/06 08:51:26;;;;;;;5.30;1.30;;;;;;;41.47;20.28;100662.20;109481;1253;59088;-67
2023/09/06 08:54:13;;;;;;;4.90;1.20;;;;;;;41.49;20.24;100665.13;109343;1254;72181;-66
2023/09/06 08:57:00;;;;;;;5.50;1.50;;;;;;;41.66;20.04;100664.80;109455;1252;69242;-66
2023/09/06 08:59:47;;;;;;;6.20;2.10;;;;;;;41.64;19.87;100660.27;109231;1259;72900;-69
2023/09/06 09:02:33;;;;;;;6.30;1.50;;;;;;;41.75;19.69;100658.51;109417;1254;58770;-66
2023/09/06 09:05:23;;;;;;;5.00;1.40;;;;;;;41.75;19.66;100665.62;109497;1253;60078;-66
2023/09/06 09:08:09;;;;;;;6.00;1.70;;;;;;;41.57;19.72;100667.19;109334;1254;71431;-66
2023/09/06 09:11:18;;;;;;;6.10;1.30;;;;;;;41.41;20.15;100668.05;109380;1255;67601;-65
2023/09/06 09:14:05;;;;;;;6.10;1.40;;;;;;;41.27;20.00;100669.61;109228;1254;73784;-66
2023/09/06 09:16:59;;;;;;;5.40;1.40;;;;;;;41.41;20.33;100673.80;109499;1254;56853;-64
2023/09/06 09:19:54;;;;;;;4.60;1.20;;;;;;;41.67;20.07;100674.34;109564;1253;61216;-65
2023/09/06 09:22:41;;;;;;;4.80;1.00;;;;;;;41.73;19.50;100677.16;109386;1254;72380;-66
2023/09/06 09:25:27;;;;;;;7.70;1.40;;;;;;;41.73;19.25;100679.40;109504;1254;67924;-66
2023/09/06 09:28:15;;;;;;;6.10;1.30;;;;;;;41.72;19.55;100683.55;109495;1254;73628;-63
2023/09/06 09:31:02;;;;;;;5.90;1.40;;;;;;;41.64;19.52;100683.55;109322;1254;57716;-66
2023/09/06 09:33:52;;;;;;;4.80;1.20;;;;;;;41.51;19.36;100683.06;109386;1253;60322;-67
2023/09/06 09:36:39;;;;;;;5.90;1.50;;;;;;;41.40;19.77;100679.18;109498;1253;70828;-68
2023/09/06 09:39:26;;;;;;;6.10;1.20;;;;;;;41.42;19.71;100682.04;109506;1253;68807;-70
2023/09/06 09:42:14;;;;;;;6.40;1.40;;;;;;;41.44;19.83;100680.66;109205;1254;72467;-66
2023/09/06 09:45:02;;;;;;;5.70;1.20;;;;;;;41.54;19.84;100682.94;109277;1254;56958;-67
2023/09/06 09:47:49;;;;;;;7.10;1.50;;;;;;;41.59;19.93;100682.55;109320;1252;58924;-64
2023/09/06 09:50:41;;;;;;;6.40;1.80;;;;;;;41.59;19.54;100681.27;109345;1256;73026;-64
2023/09/06 09:53:31;;;;;;;7.00;1.40;;;;;;;41.76;19.96;100688.10;109526;1252;67583;-66
2023/09/06 09:56:22;;;;;;;7.60;1.90;;;;;;;42.13;19.37;100692.52;109291;1254;71127;-67
2023/09/06 09:59:10;;;;;;;7.30;1.70;;;;;;;42.37;19.48;100690.52;109477;1252;57950;-66
2023/09/06 10:01:59;;;;;;;6.90;1.60;;;;;;;42.63;19.00;100686.91;109347;1254;60160;-68
2023/09/06 10:04:47;;;;;;;5.30;1.30;;;;;;;42.85;18.48;100687.55;109503;1254;73965;-65
2023/09/06 10:07:34;;;;;;;7.50;1.40;;;;;;;43.01;18.34;100687.85;109355;1254;67907;-64
2023/09/06 10:10:39;;;;;;;6.70;1.30;;;;;;;43.17;18.12;100682.82;109492;1252;71227;-69
2023/09/06 10:13:26;;;;;;;6.50;1.30;;;;;;;42.96;18.25;100680.88;109336;1258;56886;-67
2023/09/06 10:16:14;;;;;;;8.90;2.60;;;;;;;42.65;18.41;100681.35;109513;1252;60019;-65
2023/09/06 10:19:00;;;;;;;5.80;1.70;;;;;;;42.63;17.91;100680.77;109332;1253;71220;-67
2023/09/06 10:21:48;;;;;;;6.90;1.70;;;;;;;42.75;17.34;100678.40;109479;1253;67685;-66
2023/09/06 10:24:35;;;;;;;5.00;1.30;;;;;;;42.80;17.63;100680.27;109383;1254;73514;-69
2023/09/06 10:27:31;;;;;;;5.50;1.20;;;;;;;42.49;16.94;100685.88;109322;1254;56996;-67
2023/09/06 10:30:40;;;;;;;5.80;1.20;;;;;;;41.83;16.48;100681.41;109259;1254;61688;-66
2023/09/06 10:33:32;;;;;;;5.10;1.20;;;;;;;41.14;17.70;100675.54;109486;1254;73288;-65
2023/09/06 10:36:22;;;;;;;5.30;1.10;;;;;;;40.90;17.82;100670.12;109373;1254;68607;-65
2023/09/06 10:39:14;;;;;;;5.80;1.10;;;;;;;40.60;17.86;100673.41;109517;1252;71209;-68
2023/09/06 10:42:09;;;;;;;4.70;1.20;;;;;;;40.53;18.41;100665.67;109491;1253;57050;-68
2023/09/06 10:44:55;;;;;;;7.20;1.50;;;;;;;40.58;19.69;100662.14;109355;1254;58866;-67
2023/09/06 10:47:42;;;;;;;5.90;1.60;;;;;;;40.70;19.72;100663.25;109512;1253;70850;-64
2023/09/06 10:50:29;;;;;;;5.30;1.30;;;;;;;40.95;19.79;100662.29;109248;1253;67800;-67
2023/09/06 10:53:20;;;;;;;5.30;1.40;;;;;;;41.20;19.77;100664.55;109339;1253;73245;-64
2023/09/06 10:56:07;;;;;;;7.10;1.80;;;;;;;41.16;20.15;100659.30;109293;1257;57611;-65
2023/09/06 10:58:57;;;;;;;6.20;1.40;;;;;;;41.12;20.19;100661.16;109491;1254;60200;-66
2023/09/06 11:02:08;;;;;;;7.00;1.40;;;;;;;41.21;19.26;100659.02;109517;1254;71989;-65
2023/09/06 11:05:11;;;;;;;4.90;1.50;;;;;;;40.88;19.15;100658.10;109345;1253;66297;-69
2023/09/06 11:07:57;;;;;;;4.60;1.40;;;;;;;40.19;20.36;100656.95;109474;1254;72551;-65
2023/09/06 11:10:45;;;;;;;6.30;1.50;;;;;;;40.00;20.71;100654.34;109378;1253;58188;-67
2023/09/06 11:13:33;;;;;;;5.20;1.50;;;;;;;39.76;20.98;100655.48;109412;1253;60817;-68
2023/09/06 11:16:20;;;;;;;7.00;1.70;;;;;;;39.24;21.30;100652.55;109384;1254;73284;-65
2023/09/06 11:19:08;;;;;;;6.40;1.60;;;;;;;38.89;22.27;100650.64;109488;1253;66444;-68
2023/09/06 11:22:09;;;;;;;6.00;1.40;;;;;;;38.79;22.41;100651.43;109496;1253;71527;-65
2023/09/06 11:24:55;;;;;;;5.60;1.30;;;;;;;38.76;22.64;100654.17;109428;1253;56947;-65
2023/09/06 11:27:42;;;;;;;5.80;1.90;;;;;;;38.69;22.63;100661.14;109523;1254;61398;-65
2023/09/06 11:30:32;;;;;;;9.60;1.90;;;;;;;38.58;22.85;100663.02;109462;1254;72310;-63
2023/09/06 11:33:18;;;;;;;6.80;1.60;;;;;;;38.20;23.08;100660.79;109362;1254;68322;-64
2023/09/06 11:36:05;;;;;;;5.90;1.60;;;;;;;37.92;23.42;100667.71;109461;1253;72586;-65
2023/09/06 11:38:53;;;;;;;6.50;1.70;;;;;;;37.72;24.23;100665.06;109485;1253;56995;-66
2023/09/06 11:41:40;;;;;;;6.40;1.70;;;;;;;37.55;24.47;100667.98;109491;1254;60385;-64
2023/09/06 11:44:27;;;;;;;7.60;2.00;;;;;;;37.13;26.08;100664.10;109339;1253;73286;-65
2023/09/06 11:47:19;;;;;;;7.30;2.10;;;;;;;36.62;27.73;100663.59;109283;1254;67781;-65
2023/09/06 11:50:08;;;;;;;6.40;2.30;;;;;;;36.00;29.33;100660.13;109480;1253;72689;-67
2023/09/06 11:52:58;;;;;;;7.30;2.30;;;;;;;35.47;30.49;100663.88;109463;1253;59006;-66
2023/09/06 11:55:47;;;;;;;7.90;2.40;;;;;;;34.95;31.23;100663.61;109526;1253;61215;-64
2023/09/06 11:58:48;;;;;;;7.00;2.30;;;;;;;34.25;32.35;100665.34;109471;1252;71946;-67
2023/09/06 12:01:40;;;;;;;7.40;3.30;;;;;;;33.79;33.57;100670.27;109464;1253;67875;-67
2023/09/06 12:04:29;;;;;;;8.10;2.10;;;;;;;33.47;34.34;100674.20;109336;1253;72717;-62
2023/09/06 12:07:16;;;;;;;9.20;2.80;;;;;;;33.27;34.42;100676.20;109331;1254;57072;-66
2023/09/06 12:10:04;;;;;;;9.60;2.40;;;;;;;32.84;35.07;100676.46;109464;1253;58754;-68
2023/09/06 12:12:51;;;;;;;7.80;2.20;;;;;;;32.22;36.36;100675.45;109375;1253;70843;-64
2023/09/06 12:15:39;;;;;;;8.00;3.00;;;;;;;31.66;37.79;100679.52;109397;1254;67699;-66
2023/09/06 12:18:30;;;;;;;7.20;2.40;;;;;;;30.90;38.78;100684.30;109452;1251;73630;-65
2023/09/06 12:21:19;;;;;;;9.40;2.40;;;;;;;30.37;40.47;100681.05;109586;1251;57003;-66
2023/09/06 12:24:07;;;;;;;10.60;3.00;;;;;;;29.99;41.15;100684.95;109529;1251;60293;-66
2023/09/06 12:26:54;;;;;;;10.80;3.00;;;;;;;29.58;42.11;100687.89;109416;1251;72155;-66
2023/09/06 12:29:41;;;;;;;8.70;2.80;;;;;;;29.24;42.60;100697.20;109519;1251;65964;-68
2023/09/06 12:32:31;;;;;;;10.10;2.90;;;;;;;28.83;43.67;100696.64;109596;1251;73658;-69
2023/09/06 12:35:17;;;;;;;7.00;2.70;;;;;;;28.48;44.48;100698.64;109581;1251;57815;-66
2023/09/06 12:38:06;;;;;;;11.00;3.00;;;;;;;28.17;45.43;100702.65;109527;1253;60276;-67
2023/09/06 12:40:52;;;;;;;7.60;3.20;;;;;;;27.95;46.01;100705.30;109486;1253;70421;-64
2023/09/06 12:43:38;;;;;;;7.30;2.90;;;;;;;27.84;45.63;100704.84;109399;1253;67695;-65
2023/09/06 12:46:25;;;;;;;9.50;3.30;;;;;;;27.66;45.56;100709.30;109482;1253;73503;-66
2023/09/06 12:49:12;;;;;;;8.70;3.40;;;;;;;27.42;46.30;100709.38;109384;1252;56946;-68
2023/09/06 12:51:58;;;;;;;7.60;2.90;;;;;;;27.18;46.57;100713.80;109373;1252;58839;-66
2023/09/06 12:54:45;;;;;;;8.30;3.00;;;;;;;26.99;47.20;100712.90;109412;1253;71093;-67